createdAt,value
2016-07-11T00:00:23.548Z,0
2016-07-11T00:01:23.583Z,0
2016-07-11T00:02:23.604Z,0
2016-07-11T00:03:23.637Z,0
2016-07-11T00:04:23.655Z,0
2016-07-11T00:05:23.675Z,0
2016-07-11T00:06:23.718Z,0
2016-07-11T00:07:23.725Z,0
2016-07-11T00:08:23.746Z,0
2016-07-11T00:09:23.774Z,0
2016-07-11T00:10:23.794Z,0
2016-07-11T00:11:23.820Z,0
2016-07-11T00:12:23.839Z,0
2016-07-11T00:13:23.868Z,0
2016-07-11T00:14:23.889Z,0
2016-07-11T00:15:23.906Z,0
2016-07-11T00:16:23.940Z,0
2016-07-11T00:17:23.954Z,0
2016-07-11T00:18:23.986Z,0
2016-07-11T00:19:24.006Z,0
2016-07-11T00:20:24.023Z,0
2016-07-11T00:21:24.049Z,0
2016-07-11T00:22:24.077Z,0
2016-07-11T00:23:24.093Z,0
2016-07-11T00:24:24.119Z,0
2016-07-11T00:25:24.152Z,0
2016-07-11T00:26:24.199Z,0
2016-07-11T00:27:24.198Z,0
2016-07-11T00:28:24.289Z,0
2016-07-11T00:29:24.234Z,0
2016-07-11T00:30:24.318Z,0
2016-07-11T00:31:24.278Z,0
2016-07-11T00:32:24.336Z,0
2016-07-11T00:33:24.321Z,0
2016-07-11T00:34:24.383Z,0
2016-07-11T00:35:24.385Z,0
2016-07-11T00:36:24.411Z,0
2016-07-11T00:37:24.418Z,0
2016-07-11T00:38:24.450Z,0
2016-07-11T00:39:24.475Z,0
2016-07-11T00:40:24.504Z,0
2016-07-11T00:41:24.515Z,0
2016-07-11T00:42:24.540Z,0
2016-07-11T00:43:24.563Z,0
2016-07-11T00:44:24.589Z,0
2016-07-11T00:45:24.601Z,0
2016-07-11T00:46:24.624Z,0
2016-07-11T00:47:24.653Z,0
2016-07-11T00:48:24.681Z,0
2016-07-11T00:49:24.708Z,0
2016-07-11T00:50:24.717Z,0
2016-07-11T00:51:24.746Z,0
2016-07-11T00:52:24.752Z,0
2016-07-11T00:53:24.800Z,0
2016-07-11T00:54:24.815Z,0
2016-07-11T00:55:24.834Z,0
2016-07-11T00:56:24.863Z,0
2016-07-11T00:57:24.875Z,0
2016-07-11T00:58:24.903Z,0
2016-07-11T00:59:24.920Z,0
2016-07-11T01:00:24.941Z,0
2016-07-11T01:01:24.977Z,0
2016-07-11T01:02:25.003Z,0
2016-07-11T01:03:25.018Z,0
2016-07-11T01:04:25.036Z,0
2016-07-11T01:05:25.067Z,0
2016-07-11T01:06:25.082Z,0
2016-07-11T01:07:25.109Z,0
2016-07-11T01:08:25.134Z,0
2016-07-11T01:09:25.145Z,0
2016-07-11T01:10:25.173Z,0
2016-07-11T01:11:25.195Z,0
2016-07-11T01:12:25.211Z,0
2016-07-11T01:13:25.245Z,0
2016-07-11T01:14:25.890Z,0
2016-07-11T01:15:25.285Z,0
2016-07-11T01:16:25.305Z,0
2016-07-11T01:17:25.330Z,0
2016-07-11T01:18:25.351Z,0
2016-07-11T01:19:25.378Z,0
2016-07-11T01:20:25.396Z,0
2016-07-11T01:21:26.047Z,0
2016-07-11T01:22:25.453Z,0
2016-07-11T01:23:25.465Z,0
2016-07-11T01:24:25.486Z,0
2016-07-11T01:25:25.515Z,0
2016-07-11T01:26:25.525Z,0
2016-07-11T01:27:25.561Z,0
2016-07-11T01:28:25.573Z,0
2016-07-11T01:29:25.599Z,0
2016-07-11T01:30:25.609Z,0
2016-07-11T01:31:25.646Z,0
2016-07-11T01:32:25.662Z,0
2016-07-11T01:33:25.692Z,0
2016-07-11T01:34:25.707Z,0
2016-07-11T01:35:25.734Z,0
2016-07-11T01:36:25.746Z,0
2016-07-11T01:37:25.778Z,0
2016-07-11T01:38:25.797Z,0
2016-07-11T01:39:25.830Z,0
2016-07-11T01:40:25.830Z,0
2016-07-11T01:41:25.876Z,0
2016-07-11T01:42:25.899Z,0
2016-07-11T01:43:25.916Z,0
2016-07-11T01:44:25.928Z,0
2016-07-11T01:45:25.951Z,0
2016-07-11T01:46:25.993Z,0
2016-07-11T01:47:25.991Z,0
2016-07-11T01:48:26.013Z,0
2016-07-11T01:49:26.048Z,0
2016-07-11T01:50:26.068Z,0
2016-07-11T01:51:26.092Z,0
2016-07-11T01:52:26.105Z,0
2016-07-11T01:53:26.131Z,0
2016-07-11T01:54:26.149Z,0
2016-07-11T01:55:26.180Z,0
2016-07-11T01:56:26.194Z,0
2016-07-11T01:57:26.225Z,0
2016-07-11T01:58:26.263Z,0
2016-07-11T01:59:26.264Z,0
2016-07-11T02:00:26.281Z,0
2016-07-11T02:01:26.310Z,0
2016-07-11T02:02:26.344Z,0
2016-07-11T02:03:26.351Z,0
2016-07-11T02:04:26.378Z,0
2016-07-11T02:05:26.397Z,0
2016-07-11T02:06:26.432Z,0
2016-07-11T02:07:26.444Z,0
2016-07-11T02:08:26.543Z,0
2016-07-11T02:09:26.508Z,0
2016-07-11T02:10:26.583Z,0
2016-07-11T02:11:26.554Z,0
2016-07-11T02:12:26.644Z,0
2016-07-11T02:13:26.562Z,0
2016-07-11T02:14:26.637Z,0
2016-07-11T02:15:26.622Z,0
2016-07-11T02:16:26.679Z,0
2016-07-11T02:17:26.653Z,0
2016-07-11T02:18:27.322Z,0
2016-07-11T02:19:26.710Z,0
2016-07-11T02:20:26.735Z,0
2016-07-11T02:21:26.750Z,0
2016-07-11T02:22:26.770Z,0
2016-07-11T02:23:26.797Z,0
2016-07-11T02:24:26.825Z,0
2016-07-11T02:25:26.832Z,0
2016-07-11T02:26:26.866Z,0
2016-07-11T02:27:26.873Z,0
2016-07-11T02:28:26.914Z,0
2016-07-11T02:29:26.918Z,0
2016-07-11T02:30:26.945Z,0
2016-07-11T02:31:26.969Z,0
2016-07-11T02:32:26.994Z,0
2016-07-11T02:33:27.024Z,0
2016-07-11T02:34:27.034Z,0
2016-07-11T02:35:27.059Z,0
2016-07-11T02:36:27.075Z,0
2016-07-11T02:37:27.116Z,0
2016-07-11T02:38:27.126Z,0
2016-07-11T02:39:27.144Z,0
2016-07-11T02:40:27.178Z,4
2016-07-11T02:41:27.189Z,4
2016-07-11T02:42:27.844Z,4
2016-07-11T02:43:27.232Z,4
2016-07-11T02:44:27.271Z,4
2016-07-11T02:45:27.268Z,4
2016-07-11T02:46:27.296Z,4
2016-07-11T02:47:27.318Z,8
2016-07-11T02:48:27.342Z,4
2016-07-11T02:49:27.369Z,8
2016-07-11T02:50:27.387Z,8
2016-07-11T02:51:27.426Z,8
2016-07-11T02:52:27.460Z,8
2016-07-11T02:53:27.499Z,12
2016-07-11T02:54:27.518Z,12
2016-07-11T02:55:27.525Z,12
2016-07-11T02:56:27.521Z,16
2016-07-11T02:57:27.536Z,16
2016-07-11T02:58:27.582Z,16
2016-07-11T02:59:27.611Z,20
2016-07-11T03:00:27.663Z,24
2016-07-11T03:01:27.646Z,24
2016-07-11T03:02:27.639Z,24
2016-07-11T03:03:27.655Z,28
2016-07-11T03:04:27.681Z,28
2016-07-11T03:05:27.703Z,28
2016-07-11T03:06:27.739Z,24
2016-07-11T03:07:27.752Z,24
2016-07-11T03:08:27.784Z,20
2016-07-11T03:09:27.802Z,20
2016-07-11T03:10:27.831Z,20
2016-07-11T03:11:27.838Z,20
2016-07-11T03:12:27.870Z,24
2016-07-11T03:13:27.884Z,24
2016-07-11T03:14:27.911Z,24
2016-07-11T03:15:27.933Z,24
2016-07-11T03:16:27.951Z,28
2016-07-11T03:17:27.970Z,32
2016-07-11T03:18:27.988Z,36
2016-07-11T03:19:28.007Z,36
2016-07-11T03:20:28.047Z,36
2016-07-11T03:21:28.058Z,40
2016-07-11T03:22:28.084Z,44
2016-07-11T03:23:28.100Z,44
2016-07-11T03:24:28.124Z,44
2016-07-11T03:25:28.143Z,48
2016-07-11T03:26:28.189Z,52
2016-07-11T03:27:28.188Z,52
2016-07-11T03:28:28.214Z,56
2016-07-11T03:29:28.218Z,56
2016-07-11T03:30:28.254Z,60
2016-07-11T03:31:28.279Z,68
2016-07-11T03:32:28.305Z,72
2016-07-11T03:33:28.305Z,80
2016-07-11T03:34:28.333Z,84
2016-07-11T03:35:28.360Z,88
2016-07-11T03:36:28.387Z,92
2016-07-11T03:37:28.403Z,100
2016-07-11T03:38:28.433Z,104
2016-07-11T03:39:28.436Z,112
2016-07-11T03:40:28.468Z,112
2016-07-11T03:41:28.497Z,124
2016-07-11T03:42:28.518Z,132
2016-07-11T03:43:28.525Z,144
2016-07-11T03:44:28.549Z,152
2016-07-11T03:45:28.571Z,156
2016-07-11T03:46:28.605Z,164
2016-07-11T03:47:28.633Z,168
2016-07-11T03:48:28.635Z,172
2016-07-11T03:49:28.663Z,168
2016-07-11T03:50:28.685Z,168
2016-07-11T03:51:28.697Z,168
2016-07-11T03:52:28.720Z,168
2016-07-11T03:53:28.745Z,172
2016-07-11T03:54:28.760Z,180
2016-07-11T03:55:28.796Z,184
2016-07-11T03:56:28.807Z,188
2016-07-11T03:57:28.834Z,204
2016-07-11T03:58:28.850Z,224
2016-07-11T03:59:28.878Z,236
2016-07-11T04:00:28.896Z,244
2016-07-11T04:01:28.913Z,248
2016-07-11T04:02:28.945Z,244
2016-07-11T04:03:28.969Z,236
2016-07-11T04:04:28.982Z,224
2016-07-11T04:05:29.010Z,224
2016-07-11T04:06:29.025Z,228
2016-07-11T04:07:29.041Z,236
2016-07-11T04:08:29.068Z,248
2016-07-11T04:09:29.089Z,268
2016-07-11T04:10:29.110Z,288
2016-07-11T04:11:29.129Z,320
2016-07-11T04:12:29.150Z,352
2016-07-11T04:13:29.183Z,380
2016-07-11T04:14:29.204Z,396
2016-07-11T04:15:29.221Z,396
2016-07-11T04:16:29.241Z,392
2016-07-11T04:17:29.274Z,380
2016-07-11T04:18:29.280Z,368
2016-07-11T04:19:29.312Z,352
2016-07-11T04:20:29.328Z,340
2016-07-11T04:21:29.342Z,332
2016-07-11T04:22:29.371Z,324
2016-07-11T04:23:29.395Z,316
2016-07-11T04:24:29.420Z,304
2016-07-11T04:25:29.443Z,296
2016-07-11T04:26:29.458Z,300
2016-07-11T04:27:29.476Z,308
2016-07-11T04:28:29.505Z,336
2016-07-11T04:29:29.526Z,380
2016-07-11T04:30:29.545Z,432
2016-07-11T04:31:29.563Z,484
2016-07-11T04:32:29.589Z,512
2016-07-11T04:33:29.608Z,516
2016-07-11T04:34:29.635Z,508
2016-07-11T04:35:29.651Z,496
2016-07-11T04:36:29.673Z,492
2016-07-11T04:37:29.694Z,500
2016-07-11T04:38:29.706Z,500
2016-07-11T04:39:29.740Z,500
2016-07-11T04:40:29.754Z,516
2016-07-11T04:41:29.778Z,560
2016-07-11T04:42:29.810Z,624
2016-07-11T04:43:29.829Z,652
2016-07-11T04:44:29.850Z,656
2016-07-11T04:45:29.879Z,656
2016-07-11T04:46:29.900Z,696
2016-07-11T04:47:29.903Z,756
2016-07-11T04:48:29.995Z,824
2016-07-11T04:49:29.954Z,872
2016-07-11T04:50:30.060Z,900
2016-07-11T04:51:29.987Z,940
2016-07-11T04:52:30.056Z,1004
2016-07-11T04:53:30.035Z,1136
2016-07-11T04:54:30.109Z,1280
2016-07-11T04:55:30.087Z,1412
2016-07-11T04:56:30.119Z,1512
2016-07-11T04:57:30.139Z,1612
2016-07-11T04:58:30.139Z,1632
2016-07-11T04:59:30.167Z,1628
2016-07-11T05:00:30.187Z,1660
2016-07-11T05:01:30.216Z,1716
2016-07-11T05:02:30.234Z,1732
2016-07-11T05:03:30.261Z,1748
2016-07-11T05:04:30.278Z,1724
2016-07-11T05:05:30.303Z,1744
2016-07-11T05:06:30.320Z,1828
2016-07-11T05:07:30.349Z,1928
2016-07-11T05:08:30.371Z,1956
2016-07-11T05:09:30.391Z,2016
2016-07-11T05:10:30.416Z,2068
2016-07-11T05:11:30.426Z,2176
2016-07-11T05:12:30.457Z,2284
2016-07-11T05:13:30.472Z,2312
2016-07-11T05:14:30.496Z,2348
2016-07-11T05:15:30.509Z,2392
2016-07-11T05:16:30.535Z,2416
2016-07-11T05:17:30.568Z,2452
2016-07-11T05:18:30.590Z,2504
2016-07-11T05:19:30.612Z,2492
2016-07-11T05:20:30.626Z,2396
2016-07-11T05:21:30.658Z,2336
2016-07-11T05:22:30.673Z,2344
2016-07-11T05:23:30.695Z,2408
2016-07-11T05:24:30.716Z,2308
2016-07-11T05:25:30.750Z,2084
2016-07-11T05:26:30.752Z,1820
2016-07-11T05:27:30.776Z,1684
2016-07-11T05:28:30.808Z,1664
2016-07-11T05:29:30.832Z,1660
2016-07-11T05:30:30.836Z,1616
2016-07-11T05:31:30.880Z,1552
2016-07-11T05:32:30.885Z,1420
2016-07-11T05:33:30.915Z,1436
2016-07-11T05:34:30.934Z,1524
2016-07-11T05:35:30.960Z,1756
2016-07-11T05:36:30.991Z,2200
2016-07-11T05:37:31.007Z,2728
2016-07-11T05:38:31.028Z,3096
2016-07-11T05:39:31.055Z,3332
2016-07-11T05:40:31.065Z,3480
2016-07-11T05:41:31.085Z,3648
2016-07-11T05:42:31.117Z,4128
2016-07-11T05:43:31.137Z,4620
2016-07-11T05:44:31.160Z,4728
2016-07-11T05:45:31.182Z,4876
2016-07-11T05:46:31.195Z,4872
2016-07-11T05:47:31.232Z,4884
2016-07-11T05:48:31.247Z,4724
2016-07-11T05:49:31.270Z,4608
2016-07-11T05:50:31.303Z,4312
2016-07-11T05:51:31.305Z,4056
2016-07-11T05:52:31.334Z,3632
2016-07-11T05:53:31.349Z,3116
2016-07-11T05:54:31.388Z,2832
2016-07-11T05:55:31.406Z,2828
2016-07-11T05:56:31.424Z,3112
2016-07-11T05:57:31.439Z,3496
2016-07-11T05:58:31.455Z,3852
2016-07-11T05:59:31.499Z,4108
2016-07-11T06:00:31.510Z,4284
2016-07-11T06:01:31.535Z,4364
2016-07-11T06:02:31.555Z,4524
2016-07-11T06:03:31.571Z,4736
2016-07-11T06:04:31.598Z,4880
2016-07-11T06:05:31.630Z,4960
2016-07-11T06:06:31.648Z,5148
2016-07-11T06:07:31.664Z,5324
2016-07-11T06:08:31.703Z,5468
2016-07-11T06:09:31.709Z,5804
2016-07-11T06:10:31.738Z,6296
2016-07-11T06:11:31.757Z,6632
2016-07-11T06:12:31.775Z,7084
2016-07-11T06:13:31.810Z,7460
2016-07-11T06:14:31.827Z,7140
2016-07-11T06:15:31.849Z,7032
2016-07-11T06:16:31.865Z,6788
2016-07-11T06:17:31.888Z,6476
2016-07-11T06:18:31.912Z,6424
2016-07-11T06:19:31.931Z,6572
2016-07-11T06:20:31.961Z,6364
2016-07-11T06:21:31.978Z,6236
2016-07-11T06:22:32.003Z,6128
2016-07-11T06:23:32.019Z,6292
2016-07-11T06:24:32.053Z,6332
2016-07-11T06:25:32.071Z,6744
2016-07-11T06:26:32.125Z,7292
2016-07-11T06:27:32.174Z,7148
2016-07-11T06:28:32.180Z,6688
2016-07-11T06:29:32.208Z,6488
2016-07-11T06:30:32.210Z,6444
2016-07-11T06:31:32.214Z,6436
2016-07-11T06:32:32.215Z,6204
2016-07-11T06:33:32.292Z,6000
2016-07-11T06:34:32.348Z,5836
2016-07-11T06:35:32.331Z,5528
2016-07-11T06:36:32.416Z,5056
2016-07-11T06:37:32.386Z,4812
2016-07-11T06:38:32.363Z,4704
2016-07-11T06:39:32.408Z,4804
2016-07-11T06:40:32.417Z,5168
2016-07-11T06:41:32.438Z,5404
2016-07-11T06:42:32.461Z,5636
2016-07-11T06:43:32.484Z,5928
2016-07-11T06:44:32.500Z,6292
2016-07-11T06:45:32.534Z,6732
2016-07-11T06:46:32.538Z,6968
2016-07-11T06:47:32.576Z,7196
2016-07-11T06:48:32.589Z,7644
2016-07-11T06:49:32.623Z,7752
2016-07-11T06:50:32.639Z,7580
2016-07-11T06:51:32.667Z,7608
2016-07-11T06:52:32.680Z,7528
2016-07-11T06:53:32.713Z,7088
2016-07-11T06:54:32.739Z,6648
2016-07-11T06:55:32.746Z,6500
2016-07-11T06:56:32.793Z,6572
2016-07-11T06:57:32.801Z,6832
2016-07-11T06:58:32.826Z,6952
2016-07-11T06:59:32.849Z,7008
2016-07-11T07:00:32.875Z,6900
2016-07-11T07:01:32.895Z,6868
2016-07-11T07:02:32.924Z,7000
2016-07-11T07:03:32.938Z,7128
2016-07-11T07:04:32.955Z,7128
2016-07-11T07:05:32.983Z,7140
2016-07-11T07:06:33.008Z,7276
2016-07-11T07:07:33.037Z,7344
2016-07-11T07:08:33.059Z,7640
2016-07-11T07:09:33.084Z,8000
2016-07-11T07:10:33.103Z,8320
2016-07-11T07:11:33.116Z,8516
2016-07-11T07:12:33.146Z,8580
2016-07-11T07:13:33.167Z,8396
2016-07-11T07:14:33.190Z,8216
2016-07-11T07:15:33.220Z,7852
2016-07-11T07:16:33.255Z,7480
2016-07-11T07:17:33.256Z,7100
2016-07-11T07:18:33.294Z,6904
2016-07-11T07:19:33.314Z,6936
2016-07-11T07:20:33.418Z,6684
2016-07-11T07:21:33.351Z,6536
2016-07-11T07:22:34.062Z,6080
2016-07-11T07:23:33.405Z,5764
2016-07-11T07:24:33.465Z,5568
2016-07-11T07:25:33.445Z,5000
2016-07-11T07:26:33.513Z,4456
2016-07-11T07:27:33.488Z,4008
2016-07-11T07:28:33.577Z,3768
2016-07-11T07:29:33.526Z,3892
2016-07-11T07:30:33.610Z,4236
2016-07-11T07:31:33.582Z,4700
2016-07-11T07:32:33.624Z,4940
2016-07-11T07:33:33.632Z,5032
2016-07-11T07:34:33.646Z,4996
2016-07-11T07:35:33.682Z,4884
2016-07-11T07:36:33.695Z,4884
2016-07-11T07:37:33.727Z,5132
2016-07-11T07:38:34.373Z,5324
2016-07-11T07:39:33.776Z,5444
2016-07-11T07:40:33.786Z,5592
2016-07-11T07:41:33.822Z,5872
2016-07-11T07:42:33.825Z,6296
2016-07-11T07:43:33.865Z,6448
2016-07-11T07:44:33.880Z,6264
2016-07-11T07:45:33.906Z,6180
2016-07-11T07:46:33.942Z,6536
2016-07-11T07:47:33.957Z,7500
2016-07-11T07:48:33.967Z,8644
2016-07-11T07:49:33.998Z,8948
2016-07-11T07:50:34.016Z,10012
2016-07-11T07:51:34.045Z,10980
2016-07-11T07:52:34.062Z,12044
2016-07-11T07:53:34.097Z,11736
2016-07-11T07:54:34.105Z,11844
2016-07-11T07:55:34.143Z,10864
2016-07-11T07:56:34.164Z,10608
2016-07-11T07:57:34.187Z,11000
2016-07-11T07:58:34.210Z,12220
2016-07-11T07:59:34.220Z,12336
2016-07-11T08:00:34.252Z,11532
2016-07-11T08:01:34.334Z,10884
2016-07-11T08:02:34.299Z,10952
2016-07-11T08:03:34.321Z,10368
2016-07-11T08:04:34.350Z,10216
2016-07-11T08:05:34.364Z,10264
2016-07-11T08:06:34.385Z,10760
2016-07-11T08:07:34.409Z,11756
2016-07-11T08:08:34.441Z,12016
2016-07-11T08:09:34.469Z,10636
2016-07-11T08:10:34.478Z,10456
2016-07-11T08:11:34.520Z,9816
2016-07-11T08:12:34.547Z,9620
2016-07-11T08:13:34.560Z,9504
2016-07-11T08:14:34.578Z,9404
2016-07-11T08:15:34.595Z,9116
2016-07-11T08:16:34.645Z,8652
2016-07-11T08:17:34.648Z,8084
2016-07-11T08:18:34.672Z,7560
2016-07-11T08:19:34.694Z,7032
2016-07-11T08:20:34.732Z,6720
2016-07-11T08:21:34.739Z,6872
2016-07-11T08:22:34.768Z,7324
2016-07-11T08:23:34.794Z,7304
2016-07-11T08:24:34.811Z,7124
2016-07-11T08:25:34.850Z,6720
2016-07-11T08:26:34.852Z,6576
2016-07-11T08:27:34.898Z,6840
2016-07-11T08:28:34.907Z,6908
2016-07-11T08:29:34.936Z,7188
2016-07-11T08:30:34.959Z,7752
2016-07-11T08:31:34.986Z,8376
2016-07-11T08:32:35.009Z,8752
2016-07-11T08:33:35.037Z,9068
2016-07-11T08:35:35.082Z,11336
2016-07-11T08:36:35.111Z,10680
2016-07-11T08:37:35.129Z,10360
2016-07-11T08:38:35.160Z,9568
2016-07-11T08:39:35.169Z,9412
2016-07-11T08:40:35.197Z,9824
2016-07-11T08:41:35.223Z,10484
2016-07-11T08:42:35.244Z,10676
2016-07-11T08:43:35.273Z,10124
2016-07-11T08:44:35.286Z,9972
2016-07-11T08:45:35.317Z,9980
2016-07-11T08:47:35.389Z,10556
2016-07-11T08:48:35.387Z,10700
2016-07-11T08:49:35.403Z,10404
2016-07-11T08:50:35.437Z,10188
2016-07-11T08:51:35.459Z,9944
2016-07-11T08:52:35.481Z,9180
2016-07-11T08:53:35.498Z,7968
2016-07-11T08:54:35.533Z,6932
2016-07-11T08:55:35.551Z,6372
2016-07-11T08:56:35.573Z,6168
2016-07-11T08:57:35.604Z,6120
2016-07-11T08:58:35.616Z,6084
2016-07-11T08:59:35.639Z,6200
2016-07-11T09:00:35.658Z,6500
2016-07-11T09:01:35.699Z,6776
2016-07-11T09:02:35.708Z,7056
2016-07-11T09:03:35.741Z,7428
2016-07-11T09:04:35.770Z,7468
2016-07-11T09:05:35.782Z,7344
2016-07-11T09:06:35.811Z,7228
2016-07-11T09:07:35.826Z,7240
2016-07-11T09:08:35.864Z,7412
2016-07-11T09:09:35.874Z,7848
2016-07-11T09:10:35.914Z,8856
2016-07-11T09:11:35.931Z,9712
2016-07-11T09:12:35.955Z,10064
2016-07-11T09:13:35.977Z,10144
2016-07-11T09:14:35.994Z,10324
2016-07-11T09:15:36.015Z,10480
2016-07-11T09:16:36.051Z,10556
2016-07-11T09:17:36.065Z,10804
2016-07-11T09:18:36.128Z,11444
2016-07-11T09:19:36.149Z,12704
2016-07-11T09:20:36.187Z,13516
2016-07-11T09:21:36.157Z,12328
2016-07-11T09:22:36.188Z,13576
2016-07-11T09:23:36.201Z,14256
2016-07-11T09:24:36.270Z,14532
2016-07-11T09:25:36.252Z,14064
2016-07-11T09:26:36.279Z,12076
2016-07-11T09:27:36.354Z,12400
2016-07-11T09:28:36.358Z,13104
2016-07-11T09:29:36.379Z,13196
2016-07-11T09:30:36.387Z,12472
2016-07-11T09:31:36.396Z,12572
2016-07-11T09:32:36.424Z,12028
2016-07-11T09:33:36.447Z,11500
2016-07-11T09:34:36.474Z,11448
2016-07-11T09:35:36.493Z,9252
2016-07-11T09:36:36.526Z,9720
2016-07-11T09:37:36.541Z,10280
2016-07-11T09:38:36.575Z,8280
2016-07-11T09:39:36.606Z,8476
2016-07-11T09:40:36.605Z,9940
2016-07-11T09:41:36.649Z,9332
2016-07-11T09:42:36.669Z,10400
2016-07-11T09:43:36.696Z,10368
2016-07-11T09:44:36.700Z,9208
2016-07-11T09:45:36.731Z,7840
2016-07-11T09:46:36.761Z,9048
2016-07-11T09:47:36.791Z,8036
2016-07-11T09:48:36.822Z,8756
2016-07-11T09:49:36.837Z,8168
2016-07-11T09:50:36.856Z,9604
2016-07-11T09:51:36.893Z,9568
2016-07-11T09:52:36.920Z,8040
2016-07-11T09:53:36.938Z,8796
2016-07-11T09:54:36.964Z,8956
2016-07-11T09:55:36.994Z,8816
2016-07-11T09:56:37.002Z,8164
2016-07-11T09:57:37.033Z,8996
2016-07-11T09:58:37.057Z,8956
2016-07-11T09:59:37.084Z,8792
2016-07-11T10:00:37.104Z,6372
2016-07-11T10:01:37.130Z,9020
2016-07-11T10:02:37.143Z,8952
2016-07-11T10:03:37.174Z,8848
2016-07-11T10:04:37.200Z,8772
2016-07-11T10:05:37.221Z,8912
2016-07-11T10:06:37.250Z,6220
2016-07-11T10:07:37.271Z,9140
2016-07-11T10:08:37.290Z,7108
2016-07-11T10:09:37.325Z,9168
2016-07-11T10:10:37.356Z,9140
2016-07-11T10:11:37.369Z,6280
2016-07-11T10:12:37.390Z,6496
2016-07-11T10:13:37.420Z,10132
2016-07-11T10:14:37.437Z,10432
2016-07-11T10:15:37.460Z,8068
2016-07-11T10:16:37.490Z,7440
2016-07-11T10:17:37.508Z,10756
2016-07-11T10:18:37.539Z,10656
2016-07-11T10:19:37.551Z,11112
2016-07-11T10:20:37.584Z,11260
2016-07-11T10:21:37.606Z,11892
2016-07-11T10:22:37.639Z,9340
2016-07-11T10:23:37.651Z,11108
2016-07-11T10:24:37.691Z,8692
2016-07-11T10:25:37.706Z,10900
2016-07-11T10:26:37.733Z,7960
2016-07-11T10:27:37.763Z,8616
2016-07-11T10:28:37.775Z,7916
2016-07-11T10:29:37.803Z,8624
2016-07-11T10:30:37.836Z,8580
2016-07-11T10:31:37.869Z,9680
2016-07-11T10:32:37.871Z,11436
2016-07-11T10:33:37.894Z,10620
2016-07-11T10:34:37.925Z,9904
2016-07-11T10:35:37.956Z,8252
2016-07-11T10:36:37.976Z,8792
2016-07-11T10:37:38.006Z,9104
2016-07-11T10:38:38.028Z,8692
2016-07-11T10:39:38.041Z,8688
2016-07-11T10:40:38.079Z,9564
2016-07-11T10:41:38.090Z,12512
2016-07-11T10:42:38.115Z,12496
2016-07-11T10:43:38.152Z,9092
2016-07-11T10:44:38.179Z,9020
2016-07-11T10:45:38.197Z,9280
2016-07-11T10:46:38.219Z,8988
2016-07-11T10:47:38.246Z,8968
2016-07-11T10:48:38.266Z,8988
2016-07-11T10:49:38.288Z,9208
2016-07-11T10:50:38.326Z,11456
2016-07-11T10:51:38.342Z,8816
2016-07-11T10:52:38.366Z,9084
2016-07-11T10:53:38.384Z,12392
2016-07-11T10:54:38.415Z,10880
2016-07-11T10:55:38.426Z,9988
2016-07-11T10:56:38.451Z,9636
2016-07-11T10:57:38.487Z,10412
2016-07-11T10:58:38.507Z,10284
2016-07-11T10:59:38.539Z,9812
2016-07-11T11:00:38.561Z,10344
2016-07-11T11:01:38.578Z,10928
2016-07-11T11:02:38.605Z,10396
2016-07-11T11:03:38.643Z,10496
2016-07-11T11:04:38.656Z,10396
2016-07-11T11:05:38.688Z,9844
2016-07-11T11:06:38.699Z,10012
2016-07-11T11:07:38.735Z,10844
2016-07-11T11:08:38.757Z,10156
2016-07-11T11:09:38.786Z,10120
2016-07-11T11:10:38.797Z,11420
2016-07-11T11:11:38.836Z,9700
2016-07-11T11:12:38.859Z,9724
2016-07-11T11:13:38.873Z,10828
2016-07-11T11:14:38.907Z,11840
2016-07-11T11:15:38.938Z,10904
2016-07-11T11:16:38.954Z,10692
2016-07-11T11:17:38.973Z,11168
2016-07-11T11:18:38.991Z,10616
2016-07-11T11:19:39.034Z,10988
2016-07-11T11:20:39.058Z,10716
2016-07-11T11:21:39.079Z,10180
2016-07-11T11:22:39.091Z,9292
2016-07-11T11:23:39.130Z,9600
2016-07-11T11:24:39.150Z,9656
2016-07-11T11:25:39.173Z,9272
2016-07-11T11:26:39.198Z,8844
2016-07-11T11:27:39.209Z,8472
2016-07-11T11:28:39.248Z,8160
2016-07-11T11:29:39.262Z,7916
2016-07-11T11:30:39.297Z,7576
2016-07-11T11:31:39.311Z,7308
2016-07-11T11:32:39.359Z,7284
2016-07-11T11:33:39.356Z,7476
2016-07-11T11:34:39.389Z,7944
2016-07-11T11:35:39.411Z,8708
2016-07-11T11:36:39.440Z,9348
2016-07-11T11:37:39.461Z,7916
2016-07-11T11:38:39.490Z,7184
2016-07-11T11:39:39.511Z,7040
2016-07-11T11:40:39.546Z,7540
2016-07-11T11:41:39.557Z,8548
2016-07-11T11:42:39.582Z,9824
2016-07-11T11:43:39.608Z,8984
2016-07-11T11:44:39.635Z,8620
2016-07-11T11:45:39.652Z,9312
2016-07-11T11:46:39.684Z,9056
2016-07-11T11:47:39.701Z,9136
2016-07-11T11:48:39.721Z,9088
2016-07-11T11:49:39.747Z,7428
2016-07-11T11:50:39.771Z,7428
2016-07-11T11:51:39.800Z,8104
2016-07-11T11:52:39.826Z,7072
2016-07-11T11:53:39.843Z,8832
2016-07-11T11:54:39.875Z,9820
2016-07-11T11:55:39.903Z,9372
2016-07-11T11:56:39.928Z,7808
2016-07-11T11:57:39.943Z,10460
2016-07-11T11:58:39.977Z,9692
2016-07-11T11:59:39.995Z,9196
2016-07-11T12:00:40.021Z,7996
2016-07-11T12:01:40.042Z,8112
2016-07-11T12:02:40.065Z,8112
2016-07-11T12:03:40.090Z,9540
2016-07-11T12:04:40.121Z,8096
2016-07-11T12:05:40.136Z,8888
2016-07-11T12:06:40.157Z,7360
2016-07-11T12:07:40.186Z,7536
2016-07-11T12:08:40.210Z,10544
2016-07-11T12:09:40.239Z,10204
2016-07-11T12:10:40.244Z,7380
2016-07-11T12:11:40.411Z,6828
2016-07-11T12:12:40.323Z,8676
2016-07-11T12:13:40.336Z,9952
2016-07-11T12:14:40.406Z,10272
2016-07-11T12:15:40.373Z,8688
2016-07-11T12:16:40.412Z,10420
2016-07-11T12:17:40.429Z,10124
2016-07-11T12:18:40.450Z,10140
2016-07-11T12:19:40.464Z,10472
2016-07-11T12:20:40.515Z,10640
2016-07-11T12:21:40.516Z,11252
2016-07-11T12:22:40.541Z,10464
2016-07-11T12:23:40.585Z,7144
2016-07-11T12:24:40.599Z,7660
2016-07-11T12:25:40.628Z,8120
2016-07-11T12:26:40.639Z,9064
2016-07-11T12:27:40.670Z,8764
2016-07-11T12:28:40.695Z,8360
2016-07-11T12:29:40.710Z,7664
2016-07-11T12:30:40.743Z,7944
2016-07-11T12:31:40.765Z,8316
2016-07-11T12:32:40.792Z,9844
2016-07-11T12:33:40.821Z,9320
2016-07-11T12:34:40.831Z,9412
2016-07-11T12:35:40.853Z,9444
2016-07-11T12:36:40.886Z,11416
2016-07-11T12:37:40.915Z,11616
2016-07-11T12:38:40.934Z,10452
2016-07-11T12:39:40.954Z,10708
2016-07-11T12:40:40.969Z,9792
2016-07-11T12:41:41.009Z,7636
2016-07-11T12:42:41.026Z,11132
2016-07-11T12:43:41.053Z,11512
2016-07-11T12:44:41.068Z,10964
2016-07-11T12:45:41.101Z,11600
2016-07-11T12:46:41.120Z,11320
2016-07-11T12:47:41.158Z,10976
2016-07-11T12:48:41.168Z,10940
2016-07-11T12:49:41.195Z,10972
2016-07-11T12:50:41.216Z,10788
2016-07-11T12:51:41.250Z,10576
2016-07-11T12:52:42.003Z,10428
2016-07-11T12:53:41.290Z,10616
2016-07-11T12:54:41.316Z,10624
2016-07-11T12:55:41.342Z,10412
2016-07-11T12:56:41.365Z,10196
2016-07-11T12:57:41.391Z,10256
2016-07-11T12:58:41.420Z,9788
2016-07-11T12:59:41.435Z,10160
2016-07-11T13:00:41.457Z,10492
2016-07-11T13:01:41.496Z,10500
2016-07-11T13:02:41.511Z,10560
2016-07-11T13:03:41.539Z,10736
2016-07-11T13:04:41.557Z,11416
2016-07-11T13:05:41.587Z,8480
2016-07-11T13:06:41.612Z,8432
2016-07-11T13:07:41.636Z,11788
2016-07-11T13:08:41.656Z,9528
2016-07-11T13:09:41.682Z,8724
2016-07-11T13:10:41.698Z,8404
2016-07-11T13:11:41.740Z,10940
2016-07-11T13:12:41.755Z,10776
2016-07-11T13:13:41.787Z,10604
2016-07-11T13:14:41.797Z,8120
2016-07-11T13:15:41.833Z,7712
2016-07-11T13:16:41.856Z,7740
2016-07-11T13:17:41.886Z,8476
2016-07-11T13:18:41.901Z,11460
2016-07-11T13:19:41.928Z,7492
2016-07-11T13:20:41.957Z,7372
2016-07-11T13:21:41.974Z,7552
2016-07-11T13:22:42.018Z,9208
2016-07-11T13:23:42.030Z,7252
2016-07-11T13:24:42.053Z,7572
2016-07-11T13:25:42.070Z,7116
2016-07-11T13:26:42.095Z,7512
2016-07-11T13:27:42.127Z,8132
2016-07-11T13:28:42.144Z,12052
2016-07-11T13:29:42.182Z,9384
2016-07-11T13:30:42.203Z,12388
2016-07-11T13:31:42.223Z,11100
2016-07-11T13:32:42.240Z,12060
2016-07-11T13:33:42.277Z,11948
2016-07-11T13:34:42.301Z,11852
2016-07-11T13:35:42.341Z,11464
2016-07-11T13:36:42.344Z,10000
2016-07-11T13:37:42.375Z,11804
2016-07-11T13:38:42.390Z,8344